createdAt,value
2023-04-06T00:02:15.201Z,100.00
2023-04-06T00:07:41.187Z,100.00
2023-04-06T00:13:08.170Z,100.00
2023-04-06T00:18:34.195Z,100.00
2023-04-06T00:23:59.272Z,100.00
2023-04-06T00:29:27.190Z,100.00
2023-04-06T00:34:52.212Z,100.00
2023-04-06T00:40:19.220Z,100.00
2023-04-06T00:45:47.224Z,100.00
2023-04-06T00:51:13.194Z,100.00
2023-04-06T00:56:39.198Z,100.00
2023-04-06T01:02:07.206Z,100.00
2023-04-06T01:07:38.240Z,100.00
2023-04-06T01:13:07.225Z,100.00
2023-04-06T01:18:46.200Z,100.00
2023-04-06T01:24:20.205Z,100.00
2023-04-06T01:30:08.279Z,100.00
2023-04-06T01:35:59.253Z,100.00
2023-04-06T01:41:28.219Z,100.00
2023-04-06T01:46:53.250Z,100.00
2023-04-06T01:52:19.243Z,100.00
2023-04-06T01:57:49.220Z,100.00
2023-04-06T02:03:25.224Z,100.00
2023-04-06T02:08:57.232Z,100.00
2023-04-06T02:14:24.308Z,100.00
2023-04-06T02:19:51.357Z,100.00
2023-04-06T02:25:16.234Z,100.00
2023-04-06T02:30:44.436Z,100.00
2023-04-06T02:36:10.227Z,100.00
2023-04-06T02:41:35.254Z,100.00
2023-04-06T02:47:03.249Z,100.00
2023-04-06T02:52:30.251Z,100.00
2023-04-06T02:57:55.256Z,100.00
2023-04-06T03:03:31.408Z,100.00
2023-04-06T03:09:00.251Z,100.00
2023-04-06T03:14:29.256Z,100.00
2023-04-06T03:19:59.260Z,100.00
2023-04-06T03:25:24.263Z,100.00
2023-04-06T03:30:53.348Z,100.00
2023-04-06T03:36:47.145Z,100.00
2023-04-06T03:42:13.279Z,100.00
2023-04-06T03:47:44.297Z,100.00
2023-04-06T03:53:13.262Z,100.00
2023-04-06T03:58:45.259Z,100.00
2023-04-06T04:04:12.284Z,100.00
2023-04-06T04:09:39.290Z,100.00
2023-04-06T04:15:04.293Z,100.00
2023-04-06T04:20:30.322Z,100.00
2023-04-06T04:25:59.270Z,100.00
2023-04-06T04:31:26.302Z,100.00
2023-04-06T04:36:55.301Z,100.00
2023-04-06T04:42:42.288Z,100.00
2023-04-06T04:48:16.394Z,100.00
2023-04-06T04:53:46.303Z,100.00
2023-04-06T04:59:19.485Z,100.00
2023-04-06T05:04:50.289Z,100.00
2023-04-06T05:10:20.304Z,100.00
2023-04-06T05:15:52.332Z,100.00
2023-04-06T05:21:23.604Z,100.00
2023-04-06T05:26:57.332Z,100.00
2023-04-06T05:32:29.334Z,100.00
2023-04-06T05:37:54.296Z,100.00
2023-04-06T05:43:21.125Z,100.00
2023-04-06T05:48:53.339Z,100.00
2023-04-06T05:54:22.314Z,100.00
2023-04-06T05:59:52.325Z,100.00
2023-04-06T06:05:33.410Z,100.00
2023-04-06T06:11:03.311Z,100.00
2023-04-06T06:16:29.349Z,100.00
2023-04-06T06:21:56.320Z,100.00
2023-04-06T06:27:22.335Z,100.00
2023-04-06T06:32:48.414Z,100.00
2023-04-06T06:38:17.344Z,100.00
2023-04-06T06:43:42.423Z,100.00
2023-04-06T06:49:09.349Z,100.00
2023-04-06T06:54:36.352Z,100.00
2023-04-06T07:00:01.405Z,100.00
2023-04-06T07:05:28.640Z,100.00
2023-04-06T07:10:58.366Z,100.00
2023-04-06T07:16:24.374Z,100.00
2023-04-06T07:21:49.340Z,100.00
2023-04-06T07:27:16.381Z,100.00
2023-04-06T07:33:06.432Z,100.00
2023-04-06T07:38:33.376Z,100.00
2023-04-06T07:44:01.368Z,100.00
2023-04-06T07:49:28.365Z,100.00
2023-04-06T07:54:56.355Z,99.59
2023-04-06T08:00:26.363Z,98.60
2023-04-06T08:05:51.405Z,96.70
2023-04-06T08:11:16.386Z,100.00
2023-04-06T08:16:44.375Z,89.32
2023-04-06T08:22:10.382Z,81.34
2023-04-06T08:27:35.358Z,84.41
2023-04-06T08:33:02.411Z,80.22
2023-04-06T08:38:27.393Z,76.26
2023-04-06T08:43:58.389Z,78.02
2023-04-06T08:49:27.411Z,75.24
2023-04-06T08:54:52.398Z,73.07
2023-04-06T09:00:27.376Z,66.94
2023-04-06T09:05:57.386Z,65.16
2023-04-06T09:11:23.402Z,65.53
2023-04-06T09:16:53.471Z,60.70
2023-04-06T09:22:23.439Z,63.22
2023-04-06T09:27:49.412Z,52.50
2023-04-06T09:33:14.393Z,55.39
2023-04-06T09:38:42.481Z,52.32
2023-04-06T09:44:08.695Z,55.47
2023-04-06T09:49:35.471Z,54.45
2023-04-06T09:55:06.461Z,55.42
2023-04-06T10:00:39.497Z,51.65
2023-04-06T10:06:08.409Z,55.60
2023-04-06T10:11:35.435Z,53.34
2023-04-06T10:17:01.409Z,53.15
2023-04-06T10:22:31.414Z,52.53
2023-04-06T10:28:10.465Z,53.03
2023-04-06T10:33:37.508Z,53.18
2023-04-06T10:39:08.475Z,51.81
2023-04-06T10:44:41.447Z,52.27
2023-04-06T10:50:06.455Z,49.70
2023-04-06T10:55:33.446Z,49.79
2023-04-06T11:01:02.513Z,49.06
2023-04-06T11:06:27.475Z,50.57
2023-04-06T11:11:52.495Z,50.25
2023-04-06T11:17:20.536Z,48.71
2023-04-06T11:22:45.454Z,47.05
2023-04-06T11:28:11.566Z,49.19
2023-04-06T11:33:39.479Z,46.62
2023-04-06T11:39:04.483Z,48.58
2023-04-06T11:44:40.573Z,46.21
2023-04-06T11:50:08.469Z,45.56
2023-04-06T11:55:35.045Z,46.73
2023-04-06T12:01:07.461Z,45.88
2023-04-06T12:06:35.475Z,47.39
2023-04-06T12:12:01.511Z,50.41
2023-04-06T12:17:26.506Z,48.43
2023-04-06T12:22:53.460Z,44.62
2023-04-06T12:28:18.483Z,47.87
2023-04-06T12:33:42.555Z,47.30
2023-04-06T12:39:11.502Z,42.92
2023-04-06T12:44:36.727Z,46.93
2023-04-06T12:50:01.505Z,44.30
2023-04-06T12:55:29.478Z,44.08
2023-04-06T13:01:01.540Z,42.36
2023-04-06T13:06:27.507Z,43.34
2023-04-06T13:11:54.508Z,40.64
2023-04-06T13:17:19.514Z,40.75
2023-04-06T13:22:44.576Z,43.88
2023-04-06T13:28:12.660Z,42.13
2023-04-06T13:33:38.514Z,40.35
2023-04-06T13:39:03.701Z,38.64
2023-04-06T13:44:30.586Z,39.57
2023-04-06T13:49:56.538Z,38.27
2023-04-06T13:55:22.546Z,40.16
2023-04-06T14:00:57.615Z,40.39
2023-04-06T14:06:31.157Z,37.85
2023-04-06T14:11:55.563Z,40.53
2023-04-06T14:17:23.609Z,36.08
2023-04-06T14:22:47.802Z,38.42
2023-04-06T14:28:12.542Z,36.34
2023-04-06T14:33:39.568Z,37.25
2023-04-06T14:39:04.552Z,36.06
2023-04-06T14:44:28.571Z,38.28
2023-04-06T14:49:56.577Z,36.64
2023-04-06T14:55:21.580Z,37.65
2023-04-06T15:00:54.571Z,35.82
2023-04-06T15:06:27.614Z,34.78
2023-04-06T15:11:52.549Z,36.64
2023-04-06T15:17:17.596Z,36.05
2023-04-06T15:22:44.639Z,36.11
2023-04-06T15:28:09.630Z,35.75
2023-04-06T15:33:34.606Z,36.91
2023-04-06T15:39:02.620Z,35.46
2023-04-06T15:44:26.595Z,36.95
2023-04-06T15:49:56.797Z,32.08
2023-04-06T15:55:25.619Z,34.51
2023-04-06T16:00:56.613Z,34.00
2023-04-06T16:06:21.607Z,35.23
2023-04-06T16:11:48.615Z,34.60
2023-04-06T16:17:13.611Z,34.47
2023-04-06T16:22:38.623Z,37.14
2023-04-06T16:28:06.630Z,33.92
2023-04-06T16:33:31.617Z,36.29
2023-04-06T16:38:56.657Z,37.11
2023-04-06T16:44:24.660Z,37.93
2023-04-06T16:49:49.626Z,39.02
2023-04-06T16:55:15.705Z,41.64
2023-04-06T17:00:55.673Z,40.83
2023-04-06T17:06:20.637Z,41.63
2023-04-06T17:11:46.958Z,45.38
2023-04-06T17:17:14.737Z,45.42
2023-04-06T17:22:38.650Z,46.57
2023-04-06T17:28:03.639Z,47.54
2023-04-06T17:33:31.643Z,49.54
2023-04-06T17:38:56.645Z,49.62
2023-04-06T17:44:20.757Z,51.18
2023-04-06T17:49:48.662Z,52.43
2023-04-06T17:55:12.671Z,54.62
2023-04-06T18:00:43.653Z,55.19
2023-04-06T18:06:18.683Z,55.92
2023-04-06T18:11:43.694Z,56.93
2023-04-06T18:17:08.711Z,56.97
2023-04-06T18:22:35.710Z,57.54
2023-04-06T18:28:00.694Z,57.66
2023-04-06T18:33:24.657Z,58.23
2023-04-06T18:38:54.950Z,57.57
2023-04-06T18:44:19.936Z,58.40
2023-04-06T18:49:44.693Z,58.79
2023-04-06T18:55:11.830Z,59.29
2023-04-06T19:00:36.774Z,59.37
2023-04-06T19:06:00.762Z,61.17
2023-04-06T19:11:29.707Z,61.18
2023-04-06T19:16:58.760Z,61.61
2023-04-06T19:22:23.751Z,61.28
2023-04-06T19:27:51.723Z,61.94
2023-04-06T19:33:16.752Z,62.28
2023-04-06T19:38:41.735Z,63.46
2023-04-06T19:44:09.707Z,63.30
2023-04-06T19:49:34.822Z,66.22
2023-04-06T19:54:59.725Z,70.39
2023-04-06T20:00:28.716Z,71.14
2023-04-06T20:05:53.729Z,71.71
2023-04-06T20:11:20.727Z,74.26
2023-04-06T20:16:48.792Z,77.13
2023-04-06T20:22:12.725Z,82.37
2023-04-06T20:27:37.755Z,82.97
2023-04-06T20:33:04.849Z,87.71
2023-04-06T20:38:33.514Z,90.02
2023-04-06T20:43:57.760Z,95.17
2023-04-06T20:49:28.759Z,97.33
2023-04-06T20:54:53.779Z,100.00
2023-04-06T21:00:25.917Z,100.00
2023-04-06T21:05:59.753Z,100.00
2023-04-06T21:11:23.796Z,100.00
2023-04-06T21:16:48.764Z,100.00
2023-04-06T21:22:15.859Z,100.00
2023-04-06T21:27:40.804Z,100.00
2023-04-06T21:33:04.861Z,100.00
2023-04-06T21:38:33.827Z,100.00
2023-04-06T21:43:57.930Z,100.00
2023-04-06T21:49:22.793Z,100.00
2023-04-06T21:54:52.807Z,100.00
2023-04-06T22:00:18.775Z,100.00
2023-04-06T22:05:42.884Z,100.00
2023-04-06T22:11:21.922Z,100.00
2023-04-06T22:16:46.867Z,100.00
2023-04-06T22:22:11.810Z,100.00
2023-04-06T22:27:39.773Z,100.00
2023-04-06T22:33:03.870Z,100.00
2023-04-06T22:38:28.782Z,100.00
2023-04-06T22:43:55.783Z,100.00
2023-04-06T22:49:20.801Z,100.00
2023-04-06T22:54:45.876Z,100.00
2023-04-06T23:00:14.806Z,100.00
2023-04-06T23:05:39.818Z,100.00
2023-04-06T23:11:04.985Z,100.00
2023-04-06T23:16:32.952Z,100.00
2023-04-06T23:21:57.841Z,100.00
2023-04-06T23:27:22.844Z,100.00
2023-04-06T23:32:50.858Z,100.00
2023-04-06T23:38:15.811Z,100.00
2023-04-06T23:43:40.841Z,100.00
2023-04-06T23:49:07.837Z,100.00
2023-04-06T23:54:34.055Z,100.00
2023-04-06T23:59:58.050Z,100.00
